Time;durP1;ratioP1;P1;durP2;ratioP2;P2;SDS_P1;SDS_P2;PMS_P1;PMS_P2;Temp;Humidity;BMP_temperature;BMP_pressure;BME280_temperature;BME280_humidity;BME280_pressure;Samples;Min_cycle;Max_cycle;Signal;HPM_P1;HPM_P2
2024/01/14 00:01:16;;;;;;;25.47;16.97;;;;;;;0.29;68.63;99645.72;5051707;28;20587;-73
2024/01/14 00:03:44;;;;;;;29.80;16.87;;;;;;;0.22;69.15;99640.19;5052221;28;20439;-72
2024/01/14 00:06:11;;;;;;;29.43;17.57;;;;;;;0.33;69.38;99634.91;5052059;28;20427;-71
2024/01/14 00:08:37;;;;;;;33.03;19.37;;;;;;;0.42;69.15;99635.91;5051742;28;21000;-73
2024/01/14 00:11:05;;;;;;;31.23;18.13;;;;;;;0.47;69.34;99633.72;5051569;28;20445;-73
2024/01/14 00:13:31;;;;;;;36.33;19.37;;;;;;;0.52;69.05;99636.81;5051611;28;20578;-73
2024/01/14 00:15:58;;;;;;;32.53;17.87;;;;;;;0.48;69.32;99641.44;5051469;28;20446;-73
2024/01/14 00:18:25;;;;;;;26.10;16.20;;;;;;;0.52;68.81;99642.84;5051522;28;20566;-73
2024/01/14 00:20:53;;;;;;;28.93;16.37;;;;;;;0.48;68.60;99641.44;5051884;28;20434;-73
2024/01/14 00:23:20;;;;;;;27.33;16.73;;;;;;;0.45;68.77;99643.50;5051480;28;20431;-73
2024/01/14 00:25:46;;;;;;;21.13;15.20;;;;;;;0.42;68.96;99636.75;5051237;28;20948;-73
2024/01/14 00:28:13;;;;;;;25.30;16.23;;;;;;;0.48;68.94;99641.44;5051415;28;20954;-73
2024/01/14 00:30:40;;;;;;;27.83;17.17;;;;;;;0.51;68.94;99630.75;5051399;28;20504;-73
2024/01/14 00:33:06;;;;;;;26.80;16.70;;;;;;;0.55;68.83;99637.38;5051649;28;20431;-72
2024/01/14 00:35:33;;;;;;;25.17;16.17;;;;;;;0.56;69.15;99627.75;5051622;28;20475;-73
2024/01/14 00:38:02;;;;;;;26.57;15.80;;;;;;;0.56;68.99;99623.34;5041341;28;20480;-73
2024/01/14 00:40:29;;;;;;;22.17;15.07;;;;;;;0.56;68.62;99628.56;5031662;28;20531;-74
2024/01/14 00:42:56;;;;;;;30.03;16.93;;;;;;;0.53;68.82;99618.34;5031902;28;20467;-73
2024/01/14 00:45:23;;;;;;;28.80;16.37;;;;;;;0.52;68.88;99627.16;5031221;28;20530;-72
2024/01/14 00:47:49;;;;;;;23.57;15.50;;;;;;;0.51;68.70;99630.75;5031481;28;21095;-73
2024/01/14 00:50:16;;;;;;;22.40;15.57;;;;;;;0.41;68.75;99627.25;5031130;28;20440;-73
2024/01/14 00:52:43;;;;;;;22.70;14.90;;;;;;;0.30;69.92;99614.25;5031538;28;20444;-73
2024/01/14 00:55:11;;;;;;;26.17;16.67;;;;;;;0.25;70.16;99603.38;5031028;28;20455;-73
2024/01/14 00:57:38;;;;;;;28.27;16.10;;;;;;;0.28;69.94;99603.09;5031332;28;20557;-73
2024/01/14 01:00:08;;;;;;;25.40;16.10;;;;;;;0.30;70.06;99598.59;5031006;28;20871;-72
2024/01/14 01:02:35;;;;;;;26.23;15.67;;;;;;;0.31;69.99;99597.63;5031160;28;20427;-73
2024/01/14 01:05:02;;;;;;;25.70;17.17;;;;;;;0.30;70.14;99595.97;5031341;28;20510;-72
2024/01/14 01:07:29;;;;;;;26.37;16.07;;;;;;;0.21;70.02;99596.75;5031167;28;20467;-73
2024/01/14 01:09:56;;;;;;;25.97;15.27;;;;;;;0.13;70.79;99593.97;5031275;28;20458;-71
2024/01/14 01:12:24;;;;;;;26.43;17.53;;;;;;;0.03;70.80;99578.22;5030903;28;20448;-73
2024/01/14 01:14:51;;;;;;;25.20;16.60;;;;;;;0.10;70.81;99578.53;5031132;28;20493;-73
2024/01/14 01:17:18;;;;;;;31.27;17.57;;;;;;;0.10;70.58;99575.94;5030994;28;20559;-73
2024/01/14 01:19:45;;;;;;;26.27;16.97;;;;;;;0.03;71.13;99572.16;5030664;28;20494;-72
2024/01/14 01:22:12;;;;;;;26.53;17.23;;;;;;;-0.09;71.34;99578.41;5031079;28;20475;-71
2024/01/14 01:24:38;;;;;;;25.53;15.97;;;;;;;-0.23;71.33;99573.50;5030871;28;20935;-73
2024/01/14 01:27:05;;;;;;;28.67;17.80;;;;;;;-0.39;72.58;99565.28;5031016;28;20455;-72
2024/01/14 01:29:33;;;;;;;23.50;15.60;;;;;;;-0.38;72.81;99566.94;5031115;28;20455;-72
2024/01/14 01:32:00;;;;;;;30.83;17.10;;;;;;;-0.35;72.60;99561.47;5030943;28;20818;-72
2024/01/14 01:34:27;;;;;;;33.23;19.20;;;;;;;-0.34;72.78;99558.72;5030869;28;20552;-72
2024/01/14 01:36:54;;;;;;;51.23;28.70;;;;;;;-0.30;72.69;99554.09;5031693;28;20440;-74
2024/01/14 01:39:21;;;;;;;48.53;28.90;;;;;;;-0.28;72.70;99550.38;5050330;28;20828;-72
2024/01/14 01:41:49;;;;;;;44.97;26.20;;;;;;;-0.28;72.73;99546.97;5051507;28;20866;-72
2024/01/14 01:44:15;;;;;;;39.53;22.27;;;;;;;-0.29;72.65;99543.53;5054321;28;20557;-72
2024/01/14 01:46:44;;;;;;;40.10;22.10;;;;;;;-0.29;72.71;99537.47;5054392;28;20457;-72
2024/01/14 01:49:11;;;;;;;38.93;20.93;;;;;;;-0.28;72.72;99541.75;5054329;28;20504;-73
2024/01/14 01:51:41;;;;;;;36.40;20.50;;;;;;;-0.27;72.36;99546.00;5053818;28;20454;-72
2024/01/14 01:54:09;;;;;;;40.37;22.47;;;;;;;-0.27;72.97;99533.81;5053921;28;20493;-72
2024/01/14 01:56:38;;;;;;;43.37;22.90;;;;;;;-0.35;72.92;99536.22;5054490;28;20813;-73
2024/01/14 01:59:05;;;;;;;38.77;23.23;;;;;;;-0.39;73.66;99529.59;5053879;28;20510;-72
2024/01/14 02:01:33;;;;;;;47.83;25.37;;;;;;;-0.35;73.35;99522.31;5053745;28;21015;-73
2024/01/14 02:04:02;;;;;;;43.00;23.37;;;;;;;-0.37;72.71;99524.22;5053947;28;20469;-72
2024/01/14 02:06:29;;;;;;;48.63;27.00;;;;;;;-0.35;73.60;99520.56;5053669;28;20444;-73
2024/01/14 02:08:55;;;;;;;71.40;38.47;;;;;;;-0.30;73.03;99517.56;5054422;28;20502;-73
2024/01/14 02:11:22;;;;;;;57.07;34.07;;;;;;;-0.32;72.82;99522.09;5053912;28;20541;-71
2024/01/14 02:13:49;;;;;;;49.93;28.40;;;;;;;-0.37;73.63;99511.19;5053946;28;20496;-73
2024/01/14 02:16:16;;;;;;;47.07;28.20;;;;;;;-0.37;73.65;99511.19;5053755;28;20520;-71
2024/01/14 02:18:43;;;;;;;62.23;32.57;;;;;;;-0.34;73.54;99505.72;5053470;28;20901;-74
2024/01/14 02:21:18;;;;;;;98.13;49.63;;;;;;;-0.35;72.81;99506.69;5053706;28;20498;-73
2024/01/14 02:23:47;;;;;;;100.70;48.40;;;;;;;-0.34;72.52;99508.31;5053859;28;20441;-71
2024/01/14 02:26:15;;;;;;;117.00;55.50;;;;;;;-0.36;72.18;99508.44;5053540;28;20451;-72
2024/01/14 02:28:43;;;;;;;125.90;59.63;;;;;;;-0.42;72.26;99508.13;5053236;28;20501;-72
2024/01/14 02:31:10;;;;;;;86.10;42.63;;;;;;;-0.63;73.16;99515.13;5053251;28;20439;-74
2024/01/14 02:33:37;;;;;;;81.13;40.70;;;;;;;-0.63;74.18;99507.28;5053131;28;20978;-73
2024/01/14 02:36:04;;;;;;;92.87;43.30;;;;;;;-0.62;74.95;99507.16;5053657;28;20435;-73
2024/01/14 02:38:31;;;;;;;82.73;39.20;;;;;;;-0.64;74.55;99508.25;5038490;28;20979;-73
2024/01/14 02:40:57;;;;;;;84.57;39.83;;;;;;;-0.66;74.74;99504.91;5033626;28;20507;-73
2024/01/14 02:43:25;;;;;;;73.00;35.23;;;;;;;-0.72;74.92;99500.22;5033011;28;20499;-73
2024/01/14 02:45:52;;;;;;;51.87;27.37;;;;;;;-0.74;74.73;99496.91;5033419;28;20439;-73
2024/01/14 02:48:19;;;;;;;44.70;23.73;;;;;;;-0.76;75.20;99494.44;5032979;28;21012;-73
2024/01/14 02:50:46;;;;;;;40.57;24.20;;;;;;;-0.81;74.75;99490.56;5032968;28;20482;-74
2024/01/14 02:53:12;;;;;;;33.80;22.07;;;;;;;-0.80;74.38;99497.41;5033187;28;20451;-74
2024/01/14 02:55:39;;;;;;;35.53;20.43;;;;;;;-0.81;75.04;99500.97;5033564;28;20513;-75
2024/01/14 02:58:06;;;;;;;32.37;19.63;;;;;;;-0.93;74.57;99496.75;5032775;28;20998;-72
2024/01/14 03:00:34;;;;;;;31.60;19.13;;;;;;;-1.12;75.17;99496.56;5033101;28;20443;-71
2024/01/14 03:03:01;;;;;;;32.67;19.83;;;;;;;-1.24;75.46;99492.34;5032884;28;20436;-71
2024/01/14 03:05:27;;;;;;;34.63;20.00;;;;;;;-1.31;76.32;99485.97;5032998;28;20436;-73
2024/01/14 03:07:54;;;;;;;36.90;20.27;;;;;;;-1.29;76.57;99484.06;5032599;28;20452;-72
2024/01/14 03:10:22;;;;;;;33.37;20.57;;;;;;;-1.27;75.57;99477.78;5032620;28;20967;-72
2024/01/14 03:12:49;;;;;;;43.00;26.07;;;;;;;-1.38;75.92;99484.81;5032538;28;20531;-73
2024/01/14 03:15:16;;;;;;;40.13;24.17;;;;;;;-1.41;76.63;99479.81;5032352;28;20435;-72
2024/01/14 03:17:44;;;;;;;43.73;24.97;;;;;;;-1.48;76.71;99483.84;5032717;28;20440;-74
2024/01/14 03:20:11;;;;;;;42.93;24.97;;;;;;;-1.43;77.95;99481.75;5032685;28;20536;-72
2024/01/14 03:22:37;;;;;;;43.07;23.13;;;;;;;-1.40;77.69;99486.69;5032355;28;20874;-73
2024/01/14 03:25:05;;;;;;;42.67;24.83;;;;;;;-1.37;77.30;99481.25;5032349;28;20447;-74
2024/01/14 03:27:31;;;;;;;39.90;24.77;;;;;;;-1.34;76.87;99481.81;5032415;28;20503;-73
2024/01/14 03:29:58;;;;;;;40.07;22.73;;;;;;;-1.31;76.59;99489.38;5032616;28;20448;-73
2024/01/14 03:32:25;;;;;;;35.77;21.23;;;;;;;-1.28;77.16;99480.50;5032285;28;20439;-73
2024/01/14 03:34:53;;;;;;;35.83;21.77;;;;;;;-1.25;76.78;99480.25;5032876;28;20490;-73
2024/01/14 03:37:19;;;;;;;31.23;20.10;;;;;;;-1.28;77.00;99477.91;5036734;28;20497;-75
2024/01/14 03:39:46;;;;;;;39.80;22.40;;;;;;;-1.35;76.97;99468.94;5052191;28;20901;-73
2024/01/14 03:42:13;;;;;;;53.33;26.23;;;;;;;-1.43;77.32;99466.09;5052277;28;20501;-72
2024/01/14 03:44:39;;;;;;;51.03;29.40;;;;;;;-1.58;77.92;99462.09;5052353;28;20503;-73
2024/01/14 03:47:06;;;;;;;55.27;30.90;;;;;;;-1.60;78.42;99459.63;5052235;28;20590;-72
2024/01/14 03:49:33;;;;;;;50.57;28.33;;;;;;;-1.74;78.43;99461.66;5052292;28;20455;-73
2024/01/14 03:52:01;;;;;;;57.47;31.73;;;;;;;-1.83;78.14;99457.16;5052155;28;20439;-71
2024/01/14 03:54:28;;;;;;;79.73;37.83;;;;;;;-1.99;78.69;99457.53;5052132;28;20435;-71
2024/01/14 03:56:55;;;;;;;67.73;32.77;;;;;;;-2.06;79.14;99455.50;5051951;28;20439;-71
2024/01/14 03:59:22;;;;;;;59.87;28.63;;;;;;;-2.14;79.52;99448.28;5051906;28;20485;-71
2024/01/14 04:01:48;;;;;;;41.93;23.80;;;;;;;-2.21;79.47;99456.69;5052106;28;20443;-72
2024/01/14 04:04:15;;;;;;;40.13;21.63;;;;;;;-2.29;80.15;99453.84;5051533;28;20443;-73
2024/01/14 04:06:42;;;;;;;39.03;20.80;;;;;;;-2.36;80.30;99458.69;5052057;28;20435;-73
2024/01/14 04:09:10;;;;;;;34.53;19.83;;;;;;;-2.40;80.65;99461.63;5051627;28;21001;-72
2024/01/14 04:11:37;;;;;;;30.87;19.40;;;;;;;-2.35;80.47;99456.91;5051957;28;20446;-72
2024/01/14 04:14:04;;;;;;;35.30;20.67;;;;;;;-2.24;81.20;99454.31;5051785;28;20502;-72
2024/01/14 04:16:36;;;;;;;34.40;19.40;;;;;;;-2.18;80.51;99452.06;5051462;28;21088;-72
2024/01/14 04:19:03;;;;;;;33.50;19.27;;;;;;;-2.11;80.89;99449.84;5051585;28;20520;-72
2024/01/14 04:21:30;;;;;;;25.57;16.57;;;;;;;-2.08;80.52;99452.22;5051934;28;20509;-72
2024/01/14 04:23:58;;;;;;;34.90;18.37;;;;;;;-2.12;80.13;99462.00;5051791;28;20443;-72
2024/01/14 04:26:26;;;;;;;30.67;17.97;;;;;;;-2.10;80.11;99454.91;5051770;28;20563;-73
2024/01/14 04:28:53;;;;;;;31.60;18.67;;;;;;;-2.02;79.92;99459.53;5051331;28;20442;-72
2024/01/14 04:31:20;;;;;;;26.17;18.57;;;;;;;-2.20;79.64;99453.13;5051626;28;20530;-72
2024/01/14 04:33:48;;;;;;;30.03;17.87;;;;;;;-2.27;79.54;99457.16;5051454;28;20478;-72
2024/01/14 04:36:15;;;;;;;29.70;17.43;;;;;;;-2.39;80.27;99452.88;5051443;28;20518;-72
2024/01/14 04:38:42;;;;;;;32.60;18.30;;;;;;;-2.44;80.79;99461.03;5051012;28;20514;-73
2024/01/14 04:41:09;;;;;;;30.40;16.10;;;;;;;-2.41;80.50;99454.78;5051454;28;20443;-71
2024/01/14 04:43:37;;;;;;;30.40;17.27;;;;;;;-2.36;81.14;99457.84;5051560;28;20604;-72
2024/01/14 04:46:09;;;;;;;34.83;18.73;;;;;;;-2.39;80.88;99460.69;5051066;28;20431;-71
2024/01/14 04:48:35;;;;;;;31.57;19.60;;;;;;;-2.43;81.04;99467.06;5051382;28;20514;-73
2024/01/14 04:51:02;;;;;;;37.47;20.77;;;;;;;-2.36;81.63;99468.25;5051443;28;20509;-72
2024/01/14 04:53:29;;;;;;;37.90;19.63;;;;;;;-2.25;81.55;99470.88;5051168;28;20442;-72
2024/01/14 04:55:55;;;;;;;44.23;23.47;;;;;;;-2.11;80.13;99479.28;5051477;28;20442;-73
2024/01/14 04:58:22;;;;;;;33.63;19.97;;;;;;;-2.07;79.46;99469.47;5050946;28;20446;-73
2024/01/14 05:00:51;;;;;;;37.43;19.13;;;;;;;-2.05;78.73;99472.75;5050935;28;21095;-73
2024/01/14 05:03:17;;;;;;;31.47;19.40;;;;;;;-2.04;78.87;99470.03;5051219;28;20431;-73
2024/01/14 05:05:44;;;;;;;33.67;19.40;;;;;;;-1.95;78.79;99473.72;5051001;28;20532;-74
2024/01/14 05:08:11;;;;;;;43.23;21.47;;;;;;;-1.91;78.78;99464.75;5050884;28;20520;-72
2024/01/14 05:10:37;;;;;;;40.97;21.90;;;;;;;-2.00;78.23;99476.66;5051256;28;20500;-73
2024/01/14 05:13:04;;;;;;;43.70;24.43;;;;;;;-2.03;79.15;99463.06;5050789;28;20528;-73
2024/01/14 05:15:31;;;;;;;49.37;25.63;;;;;;;-2.06;79.16;99476.31;5050972;28;20435;-73
2024/01/14 05:17:59;;;;;;;41.03;24.50;;;;;;;-2.06;79.46;99476.31;5053802;28;20442;-72
2024/01/14 05:20:26;;;;;;;43.50;25.37;;;;;;;-2.01;78.96;99459.41;5054690;28;20850;-73
2024/01/14 05:22:52;;;;;;;44.40;24.90;;;;;;;-1.92;78.34;99457.88;5054663;28;20443;-73
2024/01/14 05:25:20;;;;;;;46.90;25.10;;;;;;;-2.02;78.90;99457.75;5054598;28;20437;-72
2024/01/14 05:27:46;;;;;;;44.30;24.17;;;;;;;-1.98;78.82;99458.34;5054612;28;20470;-73
2024/01/14 05:30:14;;;;;;;38.80;22.43;;;;;;;-1.99;79.29;99451.50;5054752;28;20462;-72
2024/01/14 05:32:41;;;;;;;39.03;22.43;;;;;;;-1.91;79.44;99449.13;5054516;28;20443;-73
2024/01/14 05:35:09;;;;;;;36.43;20.23;;;;;;;-1.93;79.29;99446.63;5054654;28;21030;-72
2024/01/14 05:37:36;;;;;;;36.20;21.07;;;;;;;-1.89;78.20;99444.59;5054803;28;20442;-72
2024/01/14 05:40:04;;;;;;;41.57;22.87;;;;;;;-1.83;77.89;99446.75;5054272;28;20532;-72
2024/01/14 05:42:31;;;;;;;44.50;21.37;;;;;;;-1.80;78.07;99452.53;5054678;28;20509;-72
2024/01/14 05:44:58;;;;;;;41.33;20.50;;;;;;;-1.79;77.58;99445.56;5054285;28;20584;-73
2024/01/14 05:47:24;;;;;;;38.93;20.60;;;;;;;-1.77;77.40;99441.06;5054315;28;20442;-73
2024/01/14 05:49:50;;;;;;;34.33;19.07;;;;;;;-1.76;77.40;99432.31;5054421;28;20454;-73
2024/01/14 05:52:18;;;;;;;37.03;19.80;;;;;;;-1.77;77.41;99438.44;5054496;28;20274;-73
2024/01/14 05:54:45;;;;;;;37.90;19.47;;;;;;;-1.76;77.81;99427.94;5054106;28;20455;-73
2024/01/14 05:57:12;;;;;;;29.50;19.47;;;;;;;-1.76;77.10;99440.13;5054451;28;20438;-71
2024/01/14 05:59:38;;;;;;;29.00;17.23;;;;;;;-1.74;77.18;99441.66;5054227;28;20482;-72
2024/01/14 06:02:05;;;;;;;28.70;17.47;;;;;;;-1.73;77.05;99432.06;5054233;28;20457;-72
2024/01/14 06:04:32;;;;;;;33.97;17.17;;;;;;;-1.73;76.87;99427.69;5054231;28;20435;-72
2024/01/14 06:06:59;;;;;;;31.90;18.57;;;;;;;-1.71;76.92;99424.97;5054286;28;20523;-72
2024/01/14 06:09:27;;;;;;;36.47;20.30;;;;;;;-1.67;76.87;99427.19;5054089;28;20450;-73
2024/01/14 06:11:54;;;;;;;28.13;18.57;;;;;;;-1.66;76.99;99433.25;5053878;28;20934;-73
2024/01/14 06:14:20;;;;;;;33.57;18.80;;;;;;;-1.66;76.88;99438.44;5053693;28;20512;-73
2024/01/14 06:16:47;;;;;;;36.50;19.20;;;;;;;-1.73;77.09;99432.06;5054228;28;20528;-73
2024/01/14 06:19:14;;;;;;;32.27;18.97;;;;;;;-1.65;78.23;99425.31;5053832;28;20478;-73
2024/01/14 06:21:41;;;;;;;33.20;19.73;;;;;;;-1.67;78.62;99427.19;5054141;28;20898;-73
2024/01/14 06:24:08;;;;;;;34.67;20.47;;;;;;;-1.55;78.50;99426.22;5053841;28;20447;-73
2024/01/14 06:26:36;;;;;;;36.30;22.03;;;;;;;-1.52;78.45;99427.75;5053888;28;20508;-73
2024/01/14 06:29:03;;;;;;;38.20;20.20;;;;;;;-1.37;77.56;99423.94;5053303;28;20451;-73
2024/01/14 06:31:29;;;;;;;36.70;21.47;;;;;;;-1.19;77.82;99432.88;5053312;28;20497;-74
2024/01/14 06:33:56;;;;;;;36.50;20.77;;;;;;;-0.94;76.48;99432.56;5053473;28;20524;-73
2024/01/14 06:36:23;;;;;;;36.53;19.93;;;;;;;-0.66;75.51;99447.56;5053081;28;20443;-74
2024/01/14 06:38:50;;;;;;;35.93;22.10;;;;;;;-0.39;75.79;99453.09;5053597;28;20431;-75
2024/01/14 06:41:20;;;;;;;38.33;21.43;;;;;;;-0.06;73.90;99458.91;5053190;28;20901;-76
2024/01/14 06:43:48;;;;;;;37.07;21.13;;;;;;;0.32;72.66;99460.03;5053456;28;20445;-76
2024/01/14 06:46:14;;;;;;;40.43;22.17;;;;;;;0.57;70.74;99456.94;5053503;28;20443;-75
2024/01/14 06:48:41;;;;;;;41.33;21.77;;;;;;;0.72;70.30;99461.63;5053105;28;21004;-77
2024/01/14 06:51:08;;;;;;;37.40;22.03;;;;;;;1.07;70.10;99468.97;5053811;28;20795;-75
2024/01/14 06:53:35;;;;;;;31.83;19.27;;;;;;;1.49;67.51;99468.56;5053536;28;20965;-77
2024/01/14 06:56:02;;;;;;;31.73;18.70;;;;;;;1.71;66.15;99468.22;5053608;28;20439;-77
2024/01/14 06:58:29;;;;;;;34.13;20.63;;;;;;;1.66;64.98;99469.63;5053624;28;20534;-78
2024/01/14 07:00:57;;;;;;;32.40;19.40;;;;;;;1.57;64.83;99466.06;5053402;28;20540;-77
2024/01/14 07:03:24;;;;;;;29.43;18.90;;;;;;;1.23;64.82;99399.47;5053192;28;20427;-75
2024/01/14 07:05:51;;;;;;;32.93;18.40;;;;;;;1.47;64.78;99459.19;5053295;28;20942;-77
2024/01/14 07:08:18;;;;;;;28.50;18.50;;;;;;;1.51;64.78;99450.09;5053541;28;20450;-75
2024/01/14 07:10:44;;;;;;;29.03;18.37;;;;;;;1.53;63.74;99449.00;5053247;28;20437;-76
2024/01/14 07:13:11;;;;;;;29.70;19.20;;;;;;;1.93;64.32;99444.34;5053358;28;20435;-77
2024/01/14 07:15:38;;;;;;;30.87;20.33;;;;;;;2.30;62.19;99445.16;5053603;28;20442;-77
2024/01/14 07:18:06;;;;;;;30.97;19.13;;;;;;;2.70;62.11;99448.22;5053055;28;20439;-75
2024/01/14 07:20:33;;;;;;;28.87;18.67;;;;;;;2.83;59.56;99443.47;5052796;28;20482;-80
2024/01/14 07:22:59;;;;;;;34.27;18.67;;;;;;;2.80;60.68;99449.03;5052716;28;20894;-76
2024/01/14 07:25:27;;;;;;;28.63;19.27;;;;;;;2.98;58.35;99447.22;5052808;28;20447;-78
2024/01/14 07:27:53;;;;;;;41.93;19.53;;;;;;;3.13;60.27;99435.25;5052436;28;20451;-76
2024/01/14 07:30:20;;;;;;;30.63;18.67;;;;;;;3.51;59.41;99445.41;5052500;28;20443;-77
2024/01/14 07:32:48;;;;;;;41.97;24.37;;;;;;;3.88;55.37;99448.59;5052412;28;20572;-78
2024/01/14 07:35:16;;;;;;;45.07;25.83;;;;;;;4.21;57.16;99445.19;5053000;28;20556;-74
2024/01/14 07:37:43;;;;;;;38.90;22.70;;;;;;;4.74;55.10;99440.44;5052656;28;20200;-76
2024/01/14 07:40:10;;;;;;;44.37;22.70;;;;;;;5.20;52.99;99434.59;5051650;28;20220;-77
2024/01/14 07:42:37;;;;;;;37.83;20.47;;;;;;;5.60;51.07;99431.97;5052123;28;20193;-75
2024/01/14 07:45:04;;;;;;;34.27;20.83;;;;;;;5.95;49.99;99430.00;5052406;28;20291;-76
2024/01/14 07:47:31;;;;;;;33.73;17.67;;;;;;;6.08;48.54;99420.56;5052450;28;20666;-75
2024/01/14 07:49:58;;;;;;;27.20;17.43;;;;;;;6.15;46.75;99412.78;5052385;28;20425;-75
2024/01/14 07:52:27;;;;;;;26.80;18.23;;;;;;;6.29;47.36;99412.91;5052058;28;20196;-75
2024/01/14 07:54:54;;;;;;;27.80;18.13;;;;;;;6.30;45.69;99413.72;5051878;28;20199;-76
2024/01/14 07:57:21;;;;;;;26.47;18.00;;;;;;;6.48;46.18;99406.38;5051937;28;20192;-73
2024/01/14 07:59:48;;;;;;;27.63;17.57;;;;;;;6.68;45.46;99407.59;5051626;28;20216;-75
2024/01/14 08:02:15;;;;;;;24.27;15.83;;;;;;;6.91;44.74;99421.66;5051539;28;20200;-75
2024/01/14 08:04:41;;;;;;;22.97;16.03;;;;;;;7.15;43.61;99405.66;5051346;28;20228;-75
2024/01/14 08:07:08;;;;;;;30.50;16.20;;;;;;;7.49;43.63;99404.22;5051100;28;20721;-74
2024/01/14 08:09:36;;;;;;;20.67;14.93;;;;;;;7.69;42.45;99396.63;5051595;28;20194;-74
2024/01/14 08:12:03;;;;;;;23.27;15.10;;;;;;;7.67;42.80;99396.78;5051307;28;20228;-75
2024/01/14 08:14:31;;;;;;;22.47;16.17;;;;;;;7.18;42.15;99405.31;5050587;28;20618;-74
2024/01/14 08:16:58;;;;;;;26.47;15.73;;;;;;;6.94;43.52;99397.56;5050924;28;20247;-74
2024/01/14 08:19:25;;;;;;;22.23;15.37;;;;;;;6.97;43.50;99402.47;5050319;28;20250;-76
2024/01/14 08:21:51;;;;;;;31.37;16.33;;;;;;;7.08;43.04;99400.28;5051332;28;20289;-75
2024/01/14 08:24:18;;;;;;;31.50;15.37;;;;;;;7.22;43.72;99401.34;5051235;28;20227;-76
2024/01/14 08:26:47;;;;;;;20.97;15.13;;;;;;;7.44;43.36;99390.75;5051536;28;20202;-75
2024/01/14 08:29:14;;;;;;;20.77;14.80;;;;;;;7.50;42.71;99389.19;5051850;28;20197;-75
2024/01/14 08:31:41;;;;;;;21.53;14.90;;;;;;;7.67;41.83;99393.34;5051182;28;20200;-76
2024/01/14 08:34:08;;;;;;;23.57;17.03;;;;;;;7.64;41.23;99386.56;5051449;28;20298;-76
2024/01/14 08:36:35;;;;;;;31.77;17.63;;;;;;;7.45;41.25;99396.84;5051366;28;20341;-74
2024/01/14 08:39:02;;;;;;;22.93;15.93;;;;;;;7.21;41.89;99389.09;5051530;28;20203;-75
2024/01/14 08:41:29;;;;;;;23.73;16.30;;;;;;;7.05;41.95;99399.78;5050987;28;20591;-76
2024/01/14 08:43:59;;;;;;;21.83;15.87;;;;;;;6.86;42.85;99389.69;5051642;28;20252;-77
2024/01/14 08:46:26;;;;;;;24.73;16.03;;;;;;;6.67;42.94;99384.84;5051431;28;20191;-77
2024/01/14 08:48:53;;;;;;;22.33;16.03;;;;;;;6.63;44.14;99383.56;5051649;28;20612;-76
2024/01/14 08:51:19;;;;;;;25.07;17.30;;;;;;;6.77;42.98;99377.56;5053607;28;20200;-76
2024/01/14 08:53:46;;;;;;;24.07;16.57;;;;;;;7.13;42.75;99381.25;5055229;28;20233;-75
2024/01/14 08:56:13;;;;;;;23.57;16.23;;;;;;;7.60;42.03;99379.19;5055728;28;20192;-75
2024/01/14 08:58:40;;;;;;;27.00;17.50;;;;;;;8.05;40.77;99379.84;5055029;28;20193;-75
2024/01/14 09:01:08;;;;;;;24.03;16.63;;;;;;;8.43;39.09;99377.94;5055135;28;20582;-74
2024/01/14 09:03:34;;;;;;;21.27;15.60;;;;;;;8.54;38.65;99374.84;5055316;28;20196;-75
2024/01/14 09:06:01;;;;;;;24.47;17.93;;;;;;;8.51;38.82;99369.91;5055202;28;20192;-74
2024/01/14 09:08:28;;;;;;;23.73;16.87;;;;;;;8.35;39.21;99376.22;5054983;28;20655;-75
2024/01/14 09:10:54;;;;;;;25.73;17.00;;;;;;;8.52;40.04;99363.59;5055940;28;20205;-73
2024/01/14 09:13:21;;;;;;;23.83;17.40;;;;;;;8.38;38.02;99359.97;5055700;28;20254;-75
2024/01/14 09:15:48;;;;;;;26.23;17.90;;;;;;;8.09;39.17;99353.88;5054605;28;20548;-74
2024/01/14 09:18:16;;;;;;;30.03;17.63;;;;;;;7.97;39.72;99344.75;5055097;28;20192;-75
2024/01/14 09:20:43;;;;;;;26.30;18.17;;;;;;;7.91;39.89;99337.53;5054916;28;20247;-76
2024/01/14 09:23:09;;;;;;;24.93;18.03;;;;;;;7.90;39.97;99322.69;5054676;28;20231;-75
2024/01/14 09:25:36;;;;;;;30.43;19.50;;;;;;;8.11;40.67;99330.69;5054560;28;20687;-76
2024/01/14 09:28:03;;;;;;;31.77;19.50;;;;;;;8.23;40.28;99323.97;5054628;28;20200;-74
2024/01/14 09:30:30;;;;;;;35.67;21.07;;;;;;;8.38;40.06;99312.31;5054739;28;20631;-74
2024/01/14 09:32:57;;;;;;;27.90;20.17;;;;;;;8.52;39.70;99308.00;5054066;28;20254;-74
2024/01/14 09:35:25;;;;;;;36.70;20.87;;;;;;;8.69;39.14;99309.41;5054906;28;20281;-74
2024/01/14 09:37:52;;;;;;;32.63;21.47;;;;;;;8.60;38.62;99289.34;5054355;28;20366;-74
2024/01/14 09:40:19;;;;;;;29.57;19.87;;;;;;;8.82;38.58;99298.97;5053986;28;20220;-72
2024/01/14 09:42:49;;;;;;;30.57;20.97;;;;;;;8.92;39.16;99295.00;5054070;28;20594;-74
2024/01/14 09:45:17;;;;;;;38.80;21.53;;;;;;;8.84;38.86;99297.75;5054216;28;20258;-74
2024/01/14 09:47:45;;;;;;;38.67;23.67;;;;;;;8.29;40.60;99304.72;5053994;28;20253;-75
2024/01/14 09:50:12;;;;;;;34.17;22.97;;;;;;;8.48;39.63;99306.75;5053784;28;20196;-74
2024/01/14 09:52:41;;;;;;;38.53;23.70;;;;;;;8.51;39.49;99282.56;5054019;28;20189;-73
2024/01/14 09:55:10;;;;;;;36.33;22.67;;;;;;;8.47;40.60;99268.06;5054049;28;20278;-72
2024/01/14 09:57:40;;;;;;;34.83;21.63;;;;;;;8.26;40.25;99265.38;5053514;28;20289;-75
2024/01/14 10:00:08;;;;;;;33.80;21.87;;;;;;;8.33;39.10;99272.38;5053681;28;20256;-75
2024/01/14 10:02:35;;;;;;;36.07;22.80;;;;;;;8.41;39.81;99261.69;5052580;28;20205;-75
2024/01/14 10:05:02;;;;;;;37.90;23.23;;;;;;;8.65;39.41;99265.78;5053808;28;20200;-73
2024/01/14 10:07:29;;;;;;;40.97;24.10;;;;;;;8.83;38.34;99263.53;5053246;28;20550;-73
2024/01/14 10:09:58;;;;;;;33.30;21.93;;;;;;;8.99;38.48;99257.97;5053825;28;20192;-73
2024/01/14 10:12:26;;;;;;;42.10;24.67;;;;;;;8.82;38.88;99246.00;5053242;28;20268;-74
2024/01/14 10:14:58;;;;;;;37.67;22.97;;;;;;;8.96;38.83;99242.44;5053573;28;20192;-73
2024/01/14 10:17:25;;;;;;;41.30;26.13;;;;;;;9.14;39.07;99234.81;5053657;28;20271;-74
2024/01/14 10:19:53;;;;;;;38.57;23.77;;;;;;;9.04;38.95;99237.00;5053190;28;20623;-72
2024/01/14 10:22:20;;;;;;;62.33;26.37;;;;;;;9.11;38.57;99245.81;5053352;28;20289;-73
2024/01/14 10:24:52;;;;;;;40.50;24.70;;;;;;;9.03;39.18;99244.13;5053295;28;20192;-74
2024/01/14 10:27:21;;;;;;;39.87;25.17;;;;;;;8.76;39.76;99238.81;5052990;28;20224;-73
2024/01/14 10:29:48;;;;;;;40.83;24.10;;;;;;;8.91;39.71;99223.66;5053522;28;20246;-73
2024/01/14 10:32:15;;;;;;;37.30;23.80;;;;;;;8.98;39.40;99209.44;5053093;28;20211;-72
2024/01/14 10:34:42;;;;;;;37.10;22.83;;;;;;;9.04;39.06;99208.69;5053611;28;20309;-73
2024/01/14 10:37:09;;;;;;;35.60;23.67;;;;;;;9.03;38.64;99211.53;5050047;28;20189;-74
2024/01/14 10:39:36;;;;;;;39.33;23.40;;;;;;;9.08;38.73;99209.13;5032907;28;20255;-73
2024/01/14 10:42:03;;;;;;;37.27;24.03;;;;;;;8.84;38.83;99204.25;5032698;28;20221;-73
2024/01/14 10:44:31;;;;;;;40.03;24.37;;;;;;;8.95;38.78;99214.31;5033470;28;20665;-73
2024/01/14 10:47:03;;;;;;;37.30;22.47;;;;;;;9.07;38.47;99210.13;5033542;28;20255;-73
2024/01/14 10:49:30;;;;;;;35.67;22.30;;;;;;;9.27;38.50;99201.28;5033453;28;20189;-73
2024/01/14 10:52:07;;;;;;;44.23;25.23;;;;;;;9.40;37.94;99205.84;5033009;28;20201;-73
2024/01/14 10:54:36;;;;;;;33.90;21.07;;;;;;;9.24;38.68;99198.22;5033095;28;20224;-75
2024/01/14 10:57:29;;;;;;;33.17;20.53;;;;;;;9.17;39.16;99195.53;5032911;28;20193;-74
2024/01/14 10:59:58;;;;;;;41.13;21.37;;;;;;;9.25;38.84;99199.84;5032505;28;20208;-73
2024/01/14 11:02:29;;;;;;;35.00;20.57;;;;;;;9.33;38.76;99191.75;5032673;28;20516;-73
2024/01/14 11:04:57;;;;;;;27.93;19.13;;;;;;;9.28;38.00;99188.88;5032741;28;20263;-73
2024/01/14 11:07:24;;;;;;;30.63;19.87;;;;;;;9.32;37.94;99192.75;5032599;28;20197;-73
2024/01/14 11:09:52;;;;;;;33.80;20.63;;;;;;;9.33;38.04;99192.56;5033016;28;20197;-74
2024/01/14 11:12:23;;;;;;;33.90;20.67;;;;;;;9.22;38.31;99192.28;5032649;28;20205;-74
2024/01/14 11:14:57;;;;;;;28.97;19.73;;;;;;;9.23;37.84;99176.19;5031754;28;20305;-75
2024/01/14 11:17:42;;;;;;;28.23;19.10;;;;;;;9.19;38.62;99174.94;5033072;28;20280;-73
2024/01/14 11:20:15;;;;;;;31.33;18.90;;;;;;;9.28;38.97;99172.97;5035140;28;20193;-73
2024/01/14 11:22:43;;;;;;;28.07;17.53;;;;;;;9.31;39.29;99175.22;5032216;28;20213;-73